createdAt,value
2024-03-06T00:02:09.735Z,64.49
2024-03-06T00:07:14.083Z,64.40
2024-03-06T00:12:19.450Z,64.34
2024-03-06T00:17:23.362Z,64.26
2024-03-06T00:22:27.292Z,64.32
2024-03-06T00:27:31.156Z,64.07
2024-03-06T00:32:35.385Z,63.97
2024-03-06T00:37:39.515Z,63.84
2024-03-06T00:42:43.207Z,63.92
2024-03-06T00:47:47.030Z,63.73
2024-03-06T00:52:51.118Z,63.90
2024-03-06T00:57:54.865Z,63.88
2024-03-06T01:02:58.429Z,63.54
2024-03-06T01:08:02.417Z,63.58
2024-03-06T01:13:06.053Z,63.68
2024-03-06T01:18:09.896Z,63.60
2024-03-06T01:23:13.887Z,63.46
2024-03-06T01:28:18.541Z,63.18
2024-03-06T01:33:22.863Z,63.42
2024-03-06T01:38:26.670Z,63.14
2024-03-06T01:43:30.569Z,63.07
2024-03-06T01:48:34.816Z,63.38
2024-03-06T01:53:38.549Z,63.23
2024-03-06T01:58:42.606Z,63.12
2024-03-06T02:03:47.152Z,63.13
2024-03-06T02:08:50.862Z,63.19
2024-03-06T02:13:54.716Z,62.80
2024-03-06T02:18:58.647Z,63.14
2024-03-06T02:24:02.438Z,62.83
2024-03-06T02:29:06.721Z,62.54
2024-03-06T02:34:10.832Z,62.78
2024-03-06T02:39:15.589Z,62.67
2024-03-06T02:44:19.396Z,62.77
2024-03-06T02:49:23.109Z,62.75
2024-03-06T02:54:26.846Z,62.71
2024-03-06T02:59:30.833Z,62.97
2024-03-06T03:04:34.790Z,63.01
2024-03-06T03:09:39.618Z,62.73
2024-03-06T03:14:43.921Z,62.80
2024-03-06T03:19:47.372Z,62.67
2024-03-06T03:24:51.090Z,62.87
2024-03-06T03:29:54.960Z,62.76
2024-03-06T03:34:59.112Z,62.64
2024-03-06T03:40:03.576Z,62.60
2024-03-06T03:45:08.085Z,62.77
2024-03-06T03:50:12.279Z,62.56
2024-03-06T03:55:16.654Z,62.27
2024-03-06T04:00:21.026Z,62.11
2024-03-06T04:05:24.747Z,62.14
2024-03-06T04:10:28.384Z,62.11
2024-03-06T04:15:32.082Z,61.59
2024-03-06T04:20:35.331Z,61.75
2024-03-06T04:25:40.541Z,61.75
2024-03-06T04:30:44.052Z,61.72
2024-03-06T04:35:47.626Z,61.44
2024-03-06T04:40:50.878Z,61.10
2024-03-06T04:45:54.546Z,61.09
2024-03-06T04:50:58.074Z,61.19
2024-03-06T04:56:01.550Z,60.97
2024-03-06T05:01:05.402Z,61.23
2024-03-06T05:59:41.571Z,61.90
2024-03-06T06:04:51.949Z,61.93
2024-03-06T06:10:03.759Z,62.27
2024-03-06T06:15:08.940Z,62.04
2024-03-06T06:20:16.147Z,62.41
2024-03-06T06:25:20.270Z,62.34
2024-03-06T06:30:23.814Z,62.42
2024-03-06T06:35:28.186Z,62.52
2024-03-06T06:40:32.053Z,62.43
2024-03-06T06:45:35.252Z,62.60
2024-03-06T06:50:38.855Z,62.37
2024-03-06T06:55:42.247Z,62.40
2024-03-06T07:00:45.547Z,62.29
2024-03-06T07:05:48.958Z,62.29
2024-03-06T07:10:54.312Z,62.16
2024-03-06T07:15:57.589Z,62.21
2024-03-06T07:21:00.888Z,62.13
2024-03-06T07:26:04.216Z,61.84
2024-03-06T07:31:07.558Z,61.85
2024-03-06T07:36:10.887Z,61.58
2024-03-06T07:41:14.377Z,61.41
2024-03-06T07:46:17.781Z,61.53
2024-03-06T07:51:21.138Z,61.29
2024-03-06T07:56:24.496Z,61.11
2024-03-06T08:01:29.774Z,60.83
2024-03-06T08:06:34.527Z,60.77
2024-03-06T08:11:37.875Z,60.49
2024-03-06T08:16:41.121Z,59.88
2024-03-06T08:21:44.365Z,59.74
2024-03-06T08:26:49.321Z,59.78
2024-03-06T08:31:52.604Z,59.17
2024-03-06T08:36:56.134Z,59.08
2024-03-06T08:42:00.961Z,58.57
2024-03-06T08:47:04.386Z,58.56
2024-03-06T08:52:08.098Z,58.65
2024-03-06T08:57:12.246Z,58.74
2024-03-06T09:02:16.218Z,58.66
2024-03-06T09:07:19.692Z,58.01
2024-03-06T09:12:26.686Z,58.06
2024-03-06T09:17:30.458Z,57.93
2024-03-06T09:22:33.803Z,57.49
2024-03-06T09:27:37.384Z,56.54
2024-03-06T09:32:40.831Z,55.63
2024-03-06T09:37:44.204Z,55.45
2024-03-06T09:42:47.842Z,55.27
2024-03-06T09:47:52.954Z,54.97
2024-03-06T09:52:56.844Z,54.75
2024-03-06T09:58:00.153Z,54.75
2024-03-06T10:03:06.321Z,54.54
2024-03-06T10:08:09.749Z,54.82
2024-03-06T10:13:13.158Z,54.38
2024-03-06T10:18:19.092Z,54.01
2024-03-06T10:23:22.496Z,53.72
2024-03-06T10:28:25.728Z,53.49
2024-03-06T10:33:29.999Z,53.41
2024-03-06T10:38:36.554Z,53.15
2024-03-06T10:43:41.360Z,53.12
2024-03-06T10:48:45.034Z,53.03
2024-03-06T10:53:49.223Z,52.91
2024-03-06T10:58:52.984Z,52.71
2024-03-06T11:03:56.562Z,52.73
2024-03-06T11:08:59.845Z,52.70
2024-03-06T11:14:05.334Z,52.52
2024-03-06T11:19:09.528Z,52.01
2024-03-06T11:24:22.838Z,51.99
2024-03-06T11:29:28.785Z,51.24
2024-03-06T11:34:32.238Z,51.46
2024-03-06T11:39:37.373Z,51.17
2024-03-06T11:44:54.612Z,51.00
2024-03-06T11:49:58.114Z,50.99
2024-03-06T11:55:01.362Z,50.95
2024-03-06T12:00:07.761Z,50.95
2024-03-06T12:05:12.178Z,50.78
2024-03-06T12:10:15.604Z,50.74
2024-03-06T12:15:20.053Z,49.88
2024-03-06T12:20:23.542Z,49.78
2024-03-06T12:25:27.948Z,48.81
2024-03-06T12:30:31.506Z,48.71
2024-03-06T12:35:34.856Z,48.69
2024-03-06T12:40:38.696Z,48.90
2024-03-06T12:45:42.243Z,48.60
2024-03-06T12:50:47.410Z,48.89
2024-03-06T12:55:50.786Z,48.68
2024-03-06T13:00:54.998Z,48.42
2024-03-06T13:05:58.386Z,48.58
2024-03-06T13:11:01.819Z,48.95
2024-03-06T13:16:07.543Z,48.96
2024-03-06T13:21:12.116Z,48.94
2024-03-06T13:26:15.769Z,48.70
2024-03-06T13:31:19.581Z,48.03
2024-03-06T13:36:23.165Z,48.01
2024-03-06T13:41:29.300Z,48.20
2024-03-06T13:46:34.175Z,47.75
2024-03-06T13:51:37.486Z,47.80
2024-03-06T13:56:40.881Z,47.22
2024-03-06T14:01:44.313Z,47.18
2024-03-06T14:06:47.926Z,47.15
2024-03-06T14:11:51.487Z,46.77
2024-03-06T14:16:55.279Z,46.90
2024-03-06T14:22:02.082Z,46.68
2024-03-06T14:27:07.644Z,47.03
2024-03-06T14:32:10.947Z,46.95
2024-03-06T14:37:14.202Z,46.94
2024-03-06T14:42:17.521Z,46.99
2024-03-06T14:47:21.174Z,47.31
2024-03-06T14:52:24.482Z,46.87
2024-03-06T14:57:28.324Z,46.43
2024-03-06T15:02:31.607Z,46.50
2024-03-06T15:07:34.929Z,46.89
2024-03-06T15:12:38.850Z,45.63
2024-03-06T15:17:42.566Z,45.13
2024-03-06T15:22:46.177Z,45.48
2024-03-06T15:27:49.612Z,46.25
2024-03-06T15:32:53.131Z,46.25
2024-03-06T15:37:56.661Z,46.54
2024-03-06T15:42:59.942Z,47.13
2024-03-06T15:48:06.633Z,47.07
2024-03-06T15:53:12.491Z,47.07
2024-03-06T15:58:15.891Z,47.50
2024-03-06T16:03:19.097Z,47.59
2024-03-06T16:08:27.962Z,47.58
2024-03-06T16:13:31.417Z,47.70
2024-03-06T16:18:34.829Z,47.78
2024-03-06T16:23:38.185Z,47.83
2024-03-06T16:28:42.237Z,48.07
2024-03-06T16:33:46.625Z,48.05
2024-03-06T16:38:50.301Z,48.17
2024-03-06T16:43:53.500Z,48.36
2024-03-06T16:48:57.055Z,48.59
2024-03-06T16:54:01.718Z,48.98
2024-03-06T16:59:05.902Z,49.32
2024-03-06T17:04:09.226Z,49.28
2024-03-06T17:09:12.958Z,49.30
2024-03-06T17:14:18.344Z,49.79
2024-03-06T17:19:21.660Z,50.00
2024-03-06T17:24:25.078Z,50.06
2024-03-06T17:29:28.622Z,49.87
2024-03-06T17:34:33.308Z,50.32
2024-03-06T17:39:36.778Z,50.51
2024-03-06T17:44:40.110Z,50.99
2024-03-06T17:49:44.510Z,51.28
2024-03-06T17:54:47.995Z,51.20
2024-03-06T17:59:51.747Z,51.47
2024-03-06T18:04:55.399Z,51.90
2024-03-06T18:09:58.678Z,52.09
2024-03-06T18:15:02.836Z,52.26
2024-03-06T18:20:08.073Z,52.36
2024-03-06T18:25:11.647Z,52.57
2024-03-06T18:30:15.603Z,52.75
2024-03-06T18:35:19.208Z,52.95
2024-03-06T18:40:22.556Z,52.93
2024-03-06T18:45:26.166Z,53.09
2024-03-06T18:50:32.706Z,53.44
2024-03-06T18:55:37.919Z,53.48
2024-03-06T19:00:41.249Z,53.45
2024-03-06T19:05:44.620Z,53.61
2024-03-06T19:10:48.457Z,53.61
2024-03-06T19:15:52.823Z,53.81
2024-03-06T19:20:57.366Z,53.99
2024-03-06T19:26:01.096Z,54.35
2024-03-06T19:31:04.580Z,54.63
2024-03-06T19:36:08.258Z,54.45
2024-03-06T19:41:11.825Z,54.36
2024-03-06T19:46:15.853Z,54.41
2024-03-06T19:51:19.533Z,54.47
2024-03-06T19:56:25.208Z,54.92
2024-03-06T20:01:28.670Z,54.92
2024-03-06T20:06:32.243Z,55.06
2024-03-06T20:11:35.611Z,55.44
2024-03-06T20:16:39.303Z,55.65
2024-03-06T20:21:42.700Z,55.70
2024-03-06T20:26:46.103Z,55.83
2024-03-06T20:31:50.169Z,56.03
2024-03-06T20:36:54.670Z,56.24
2024-03-06T20:41:58.174Z,56.32
2024-03-06T20:47:02.237Z,56.72
2024-03-06T20:52:07.344Z,56.85
2024-03-06T20:57:11.116Z,56.75
2024-03-06T21:02:14.356Z,57.03
2024-03-06T21:07:17.621Z,57.23
2024-03-06T21:12:21.871Z,57.24
2024-03-06T21:17:25.441Z,57.40
2024-03-06T21:22:28.731Z,57.38
2024-03-06T21:27:32.156Z,57.68
2024-03-06T21:32:35.789Z,57.87
2024-03-06T21:37:39.339Z,57.73
2024-03-06T21:42:43.456Z,57.95
2024-03-06T21:47:46.746Z,58.02
2024-03-06T21:52:50.816Z,57.87
2024-03-06T21:57:53.936Z,58.05
2024-03-06T22:02:57.389Z,58.11
2024-03-06T22:08:00.744Z,58.05
2024-03-06T22:13:04.023Z,58.11
2024-03-06T22:18:08.118Z,58.10
2024-03-06T22:23:12.026Z,58.16
2024-03-06T22:28:15.379Z,58.21
2024-03-06T22:33:18.933Z,58.04
2024-03-06T22:38:22.628Z,58.08
2024-03-06T22:43:25.903Z,58.11
2024-03-06T22:48:29.163Z,58.23
2024-03-06T22:53:32.725Z,58.22
2024-03-06T22:58:35.990Z,58.06
2024-03-06T23:03:39.261Z,58.33
2024-03-06T23:08:42.480Z,58.32
2024-03-06T23:13:45.738Z,58.45
2024-03-06T23:18:50.873Z,58.45
2024-03-06T23:23:54.163Z,58.60
2024-03-06T23:28:57.577Z,58.60
2024-03-06T23:34:00.936Z,58.45
2024-03-06T23:39:04.583Z,58.35
2024-03-06T23:44:08.048Z,58.22
2024-03-06T23:49:11.906Z,58.02
2024-03-06T23:54:15.666Z,58.19
2024-03-06T23:59:19.787Z,58.00
